»·PEaware :: N132KT KSJC-KDLS

N132KT :: KSJC-KDLS

FLIGHT INFORMATION

Flight Status: Arrived
Operator: Privately registered:
United States
More flights under this callsign
Pilot: Keith S. (1)
Aircraft: MITSUBISHI MU-2 MARQUISE
(MU2)
More flights by this aircraft type
Origin: KSJC Mineta San Jose Intl
United States
Destination: KDLS Columbia Gorge Regl/The Dalle
United States
More flights between these airports :: More routes between these airports
Route: SUNOL9 SAC J126 RBL J65 LMT V25 KUKTE T261 VECCU
File this flight plan on PilotEdge
Remarks:
Altitude:
(Current/Filed)
16,500ft
Speed:
(Current/Filed)
310kts
Departed: 17-Jul-19 06:00 AM
Arrived: 17-Jul-19 07:48 AM
Distance/Time
Traveled:
497nm/1:48
Distance/Time
To Go:
Arrived

Flight Plot

Page will automatically refresh every two minutes.

Flight plan parsing failed; only flown route is shown


Map Options




Map Legend


Flown Route
Filed Route
Departure Airport
Arrival Airport
Navaid (VOR, NDB)
Fix

Horizontal Profiles

Position Reports

Time Latitude Longitude Heading Altitude Ground
Speed
17-Jul-19 05:45 37.352704 -121.922286 50 46ft 0kts
17-Jul-19 05:46 37.352704 -121.922286 50 46ft 0kts
17-Jul-19 05:47 37.352704 -121.922286 50 46ft 0kts
17-Jul-19 05:48 37.352704 -121.922286 50 46ft 0kts
17-Jul-19 05:49 37.352704 -121.922286 50 46ft 0kts
17-Jul-19 05:50 37.352704 -121.922286 50 46ft 0kts
17-Jul-19 05:51 37.352704 -121.922286 50 46ft 0kts
17-Jul-19 05:52 37.352704 -121.922286 50 46ft 0kts
17-Jul-19 05:53 37.352704 -121.922285 51 46ft 0kts
17-Jul-19 05:54 37.352704 -121.922285 51 46ft 0kts
17-Jul-19 05:55 37.352704 -121.922285 50 46ft 0kts
17-Jul-19 05:56 37.352704 -121.922285 50 46ft 0kts
17-Jul-19 05:57 37.352063 -121.920137 127 46ft 8kts
17-Jul-19 05:58 37.353253 -121.919528 320 46ft 35kts
17-Jul-19 05:59 37.383954 -121.953417 315 897ft 188kts
17-Jul-19 06:00 37.429547 -121.967391 49 2821ft 188kts
17-Jul-19 06:01 37.456588 -121.908398 58 4533ft 199kts
17-Jul-19 06:02 37.507235 -121.868057 25 4967ft 233kts
17-Jul-19 06:03 37.567380 -121.832720 24 4958ft 241kts
17-Jul-19 06:04 37.630968 -121.802426 13 4959ft 253kts
17-Jul-19 06:05 37.699129 -121.781680 12 6379ft 244kts
17-Jul-19 06:06 37.764664 -121.761640 12 7969ft 241kts
17-Jul-19 06:07 37.829911 -121.741638 12 9492ft 243kts
17-Jul-19 06:08 37.896226 -121.721263 12 11006ft 246kts
17-Jul-19 06:09 37.963197 -121.700644 12 12508ft 249kts
17-Jul-19 06:10 38.031012 -121.679722 12 14012ft 252kts
17-Jul-19 06:11 38.099448 -121.658582 11 15512ft 253kts
17-Jul-19 06:12 38.168345 -121.637263 11 17011ft 255kts
17-Jul-19 06:13 38.237287 -121.615886 11 18494ft 256kts
17-Jul-19 06:14 38.306603 -121.594351 10 19965ft 257kts
17-Jul-19 06:15 38.376106 -121.572713 10 21419ft 257kts
17-Jul-19 06:16 38.446072 -121.556300 349 22834ft 253kts
17-Jul-19 06:17 38.514098 -121.580207 341 23947ft 264kts
17-Jul-19 06:18 38.587905 -121.609968 341 23935ft 283kts
17-Jul-19 06:19 38.663344 -121.640561 341 23932ft 289kts
17-Jul-19 06:20 38.740683 -121.672010 341 23927ft 292kts
17-Jul-19 06:21 38.818600 -121.703763 341 23925ft 293kts
17-Jul-19 06:22 38.896497 -121.735570 341 23927ft 293kts
17-Jul-19 06:23 38.974526 -121.767456 339 23931ft 293kts
17-Jul-19 06:24 39.052951 -121.799659 337 23935ft 296kts
17-Jul-19 06:25 39.131842 -121.832179 337 23937ft 299kts
17-Jul-19 06:26 39.211395 -121.864981 338 23936ft 300kts
17-Jul-19 06:27 39.291093 -121.897920 337 23940ft 300kts
17-Jul-19 06:28 39.370951 -121.931007 338 23944ft 300kts
17-Jul-19 06:29 39.450894 -121.964208 338 23944ft 301kts
17-Jul-19 06:30 39.530965 -121.997545 338 23944ft 301kts
17-Jul-19 06:31 39.610694 -122.030818 338 23944ft 301kts
17-Jul-19 06:32 39.690836 -122.064346 338 23943ft 301kts
17-Jul-19 06:33 39.770697 -122.097836 338 23943ft 301kts
17-Jul-19 06:34 39.850590 -122.131424 338 23943ft 301kts
17-Jul-19 06:35 39.930586 -122.165135 338 23942ft 301kts
17-Jul-19 06:36 40.010247 -122.198789 337 23942ft 301kts
17-Jul-19 06:37 40.090150 -122.232015 347 23929ft 304kts
17-Jul-19 06:38 40.175944 -122.217800 5 23943ft 313kts
17-Jul-19 06:39 40.262014 -122.197105 5 23942ft 313kts
17-Jul-19 06:40 40.348107 -122.176317 5 23942ft 313kts
17-Jul-19 06:41 40.433920 -122.155541 5 23937ft 314kts
17-Jul-19 06:42 40.520116 -122.134621 5 23934ft 314kts
17-Jul-19 06:43 40.606396 -122.113623 5 23934ft 314kts
17-Jul-19 06:44 40.692341 -122.092650 5 23934ft 314kts
17-Jul-19 06:45 40.778771 -122.071506 5 23934ft 314kts
17-Jul-19 06:46 40.865009 -122.050353 5 23934ft 314kts
17-Jul-19 06:48 40.951328 -122.029122 5 23934ft 314kts
17-Jul-19 06:49 41.037631 -122.007797 4 23934ft 313kts
17-Jul-19 06:50 41.120421 -121.987326 3 23936ft 310kts
17-Jul-19 06:51 41.204675 -121.966473 3 24011ft 305kts
17-Jul-19 06:52 41.287975 -121.945776 3 24096ft 303kts
17-Jul-19 06:53 41.371408 -121.924994 3 24101ft 304kts
17-Jul-19 06:54 41.454999 -121.904110 3 24101ft 305kts
17-Jul-19 06:55 41.538305 -121.883242 3 24103ft 305kts
17-Jul-19 06:56 41.622075 -121.862201 3 24105ft 305kts
17-Jul-19 06:57 41.705481 -121.841199 3 24113ft 304kts
17-Jul-19 06:58 41.788847 -121.820152 3 24118ft 304kts
17-Jul-19 06:59 41.872220 -121.799048 3 24118ft 304kts
17-Jul-19 07:00 41.955758 -121.777842 3 24118ft 304kts
17-Jul-19 07:01 42.037242 -121.757106 3 24117ft 304kts
17-Jul-19 07:02 42.119103 -121.736218 3 24121ft 304kts
17-Jul-19 07:03 42.202908 -121.717817 1 24121ft 303kts
17-Jul-19 07:04 42.286469 -121.701456 1 24121ft 303kts
17-Jul-19 07:05 42.370427 -121.684987 1 24121ft 303kts
17-Jul-19 07:06 42.453965 -121.668553 1 24120ft 303kts
17-Jul-19 07:06 42.523775 -121.654790 1 24120ft 303kts
17-Jul-19 07:08 42.621347 -121.635499 1 24120ft 303kts
17-Jul-19 07:08 42.691031 -121.621682 1 24120ft 303kts
17-Jul-19 07:10 42.789001 -121.602206 1 24119ft 303kts
17-Jul-19 07:11 42.871425 -121.585786 1 24119ft 303kts
17-Jul-19 07:11 42.940998 -121.571827 0 24119ft 303kts
17-Jul-19 07:13 43.038483 -121.552283 359 24119ft 303kts
17-Jul-19 07:13 43.105438 -121.538869 359 24108ft 303kts
17-Jul-19 07:14 43.189219 -121.521966 358 24092ft 304kts
17-Jul-19 07:16 43.287377 -121.502158 358 24086ft 304kts
17-Jul-19 07:16 43.357235 -121.488001 358 24086ft 304kts
17-Jul-19 07:17 43.441363 -121.470911 358 24085ft 304kts
17-Jul-19 07:18 43.525053 -121.453859 358 24085ft 304kts
17-Jul-19 07:19 43.608954 -121.436717 358 24085ft 304kts
17-Jul-19 07:20 43.693299 -121.419436 358 24085ft 304kts
17-Jul-19 07:21 43.777009 -121.402235 358 24084ft 304kts
17-Jul-19 07:22 43.860947 -121.384941 358 24084ft 304kts
17-Jul-19 07:23 43.944733 -121.367625 358 24084ft 304kts
17-Jul-19 07:24 44.028948 -121.350174 358 24084ft 304kts
17-Jul-19 07:25 44.109445 -121.333444 359 24077ft 303kts
17-Jul-19 07:26 44.193448 -121.315988 359 23847ft 310kts
17-Jul-19 07:27 44.281396 -121.299789 357 22877ft 318kts
17-Jul-19 07:28 44.369431 -121.287753 357 21759ft 316kts
17-Jul-19 07:29 44.456699 -121.275884 357 20780ft 313kts
17-Jul-19 07:30 44.543250 -121.264078 357 19897ft 310kts
17-Jul-19 07:31 44.628820 -121.252382 358 18966ft 307kts
17-Jul-19 07:32 44.713660 -121.240733 358 17858ft 304kts
17-Jul-19 07:33 44.797783 -121.229157 358 16820ft 300kts
17-Jul-19 07:34 44.880499 -121.217744 359 15830ft 298kts
17-Jul-19 07:35 44.962022 -121.211295 356 14300ft 292kts
17-Jul-19 07:36 45.041842 -121.206058 356 12740ft 285kts
17-Jul-19 07:37 45.118762 -121.201043 357 11306ft 278kts
17-Jul-19 07:38 45.195348 -121.196063 357 9956ft 271kts
17-Jul-19 07:39 45.269917 -121.191225 357 8517ft 263kts
17-Jul-19 07:40 45.342613 -121.186411 357 7994ft 261kts
17-Jul-19 07:41 45.415738 -121.180584 3 8041ft 264kts
17-Jul-19 07:42 45.485022 -121.153947 22 6762ft 238kts
17-Jul-19 07:43 45.524770 -121.118909 27 5406ft 147kts
17-Jul-19 07:44 45.558714 -121.112071 334 3942ft 119kts
17-Jul-19 07:45 45.584498 -121.133821 321 2302ft 89kts
17-Jul-19 07:46 45.608056 -121.157679 321 401ft 95kts
17-Jul-19 07:47 45.620583 -121.170455 319 216ft 5kts
17-Jul-19 07:48 45.618771 -121.172481 210 216ft 0kts
17-Jul-19 07:49 45.618771 -121.172481 210 216ft 0kts
17-Jul-19 07:50 45.618771 -121.172481 210 216ft 0kts

Navigation Log

Ident Type
Flight plan parsing failed, navigation log unavailable